シカゴ/オヘア の空港の天気 - METARとTAF

シカゴ・オヘア国際空港 ( KORD / ORD ) - アメリカ イリノイ州シカゴ
飛行場実況気象(Metar)
観測時間07/01 07:51 CDT (07/01 12:51 UTC)
風向・風速西 3m/s
視程10km以上
天気現象
少しの雲 雲底高度 2590m
全天の8割程度の雲 雲底高度 3050m
全天の8割程度の雲 雲底高度 5490m
気温24.4℃
湿度56%
気圧1012.7hPa
METARKORD 011251Z 26005KT 10SM FEW085 BKN100 BKN180 24/15 A2992 RMK AO2 RAB02E11 SLP127 P0000 T02440150
過去の天気等 Google飛行場航空写真 Wunderground天気予報

過去48時間のMETAR

飛行場予報(TAF)
発表時間: 7/01 06:25 CDT (7/01 11:25 UTC)
予報対象時間: 1日7時 CDT ~ 2日13時 CDT
風向・風速西 4m/s
視程10km以上
全天の8割程度の雲 雲底高度 2130m
全天の8割程度の雲 雲底高度 3050m
1日11時 CDT から
風向・風速北東 5m/s
視程10km以上
全天の4割程度の雲 雲底高度 4570m
全天の8割程度の雲 雲底高度 6100m
1日11時 CDT ~ 1日15時 CDT に一時的に
視程10km以上
天気現象弱いしゅう雨
全天の8割程度の雲 雲底高度 1520m
1日22時 CDT から
風向・風速不定 2m/s
視程10km以上
少しの雲 雲底高度 7620m
KORD 011125Z 0112/0218 26008KT P6SM BKN070 BKN100
FM011600 04010KT P6SM SCT150 BKN200
TEMPO 0116/0120 6SM -SHRA BKN050
FM020300 VRB03KT P6SM FEW250